createdAt,value
2019-05-18T00:01:08.363Z,99163.00
2019-05-18T00:03:41.197Z,99160.00
2019-05-18T00:06:14.055Z,99157.00
2019-05-18T00:08:46.894Z,99163.00
2019-05-18T00:11:19.715Z,99173.00
2019-05-18T00:13:52.564Z,99165.00
2019-05-18T00:16:25.356Z,99166.00
2019-05-18T00:18:58.182Z,99160.00
2019-05-18T00:21:30.989Z,99148.00
2019-05-18T00:24:03.959Z,99145.00
2019-05-18T00:26:36.877Z,99155.00
2019-05-18T00:29:09.693Z,99156.00
2019-05-18T00:31:42.646Z,99152.00
2019-05-18T00:34:15.603Z,99162.00
2019-05-18T00:36:48.431Z,99166.00
2019-05-18T00:39:21.263Z,99160.00
2019-05-18T00:41:54.257Z,99164.00
2019-05-18T00:44:27.113Z,99157.00
2019-05-18T00:46:59.930Z,99153.00
2019-05-18T00:49:32.762Z,99158.00
2019-05-18T00:52:05.537Z,99155.00
2019-05-18T00:54:38.348Z,99156.00
2019-05-18T00:57:11.182Z,99155.00
2019-05-18T00:59:44.034Z,99153.00
2019-05-18T01:02:16.813Z,99152.00
2019-05-18T01:04:49.639Z,99151.00
2019-05-18T01:07:22.441Z,99161.00
2019-05-18T01:09:55.897Z,99152.00
2019-05-18T01:12:28.833Z,99166.00
2019-05-18T01:15:01.706Z,99168.00
2019-05-18T01:17:34.513Z,99173.00
2019-05-18T01:20:09.016Z,99158.00
2019-05-18T01:22:41.982Z,99158.00
2019-05-18T01:25:17.162Z,99168.00
2019-05-18T01:27:50.067Z,99165.00
2019-05-18T01:30:24.279Z,99168.00
2019-05-18T01:32:57.068Z,99169.00
2019-05-18T01:35:29.915Z,99167.00
2019-05-18T01:38:02.939Z,99174.00
2019-05-18T01:40:35.767Z,99167.00
2019-05-18T01:43:09.676Z,99176.00
2019-05-18T01:45:42.528Z,99178.00
2019-05-18T01:48:15.348Z,99163.00
2019-05-18T01:50:48.154Z,99172.00
2019-05-18T01:53:20.944Z,99162.00
2019-05-18T01:55:53.830Z,99160.00
2019-05-18T01:58:26.574Z,99148.00
2019-05-18T02:00:59.417Z,99148.00
2019-05-18T02:03:32.229Z,99139.00
2019-05-18T02:06:05.064Z,99152.00
2019-05-18T02:08:37.881Z,99150.00
2019-05-18T02:11:10.691Z,99149.00
2019-05-18T02:13:44.597Z,99148.00
2019-05-18T02:16:17.477Z,99159.00
2019-05-18T02:18:50.247Z,99149.00
2019-05-18T02:21:23.097Z,99146.00
2019-05-18T02:23:55.932Z,99136.00
2019-05-18T02:26:28.719Z,99137.00
2019-05-18T02:29:01.994Z,99145.00
2019-05-18T02:31:34.942Z,99147.00
2019-05-18T02:34:07.762Z,99141.00
2019-05-18T02:36:40.565Z,99137.00
2019-05-18T02:39:13.384Z,99128.00
2019-05-18T02:41:46.159Z,99133.00
2019-05-18T02:44:19.212Z,99128.00
2019-05-18T02:46:52.270Z,99125.00
2019-05-18T02:49:25.127Z,99123.00
2019-05-18T02:51:57.908Z,99115.00
2019-05-18T02:54:30.732Z,99121.00
2019-05-18T02:57:03.517Z,99119.00
2019-05-18T02:59:36.325Z,99117.00
2019-05-18T03:02:09.140Z,99100.00
2019-05-18T03:04:42.048Z,99110.00
2019-05-18T03:07:14.865Z,99105.00
2019-05-18T03:09:47.706Z,99109.00
2019-05-18T03:12:20.542Z,99110.00
2019-05-18T03:14:53.381Z,99105.00
2019-05-18T03:17:26.200Z,99113.00
2019-05-18T03:19:59.010Z,99113.00
2019-05-18T03:22:32.939Z,99120.00
2019-05-18T03:25:07.093Z,99114.00
2019-05-18T03:27:39.871Z,99105.00
2019-05-18T03:30:12.951Z,99108.00
2019-05-18T03:32:45.725Z,99108.00
2019-05-18T03:35:18.532Z,99105.00
2019-05-18T03:37:51.334Z,99107.00
2019-05-18T03:40:24.130Z,99106.00
2019-05-18T03:42:56.959Z,99115.00
2019-05-18T03:45:29.851Z,99125.00
2019-05-18T03:48:02.776Z,99114.00
2019-05-18T03:50:35.593Z,99118.00
2019-05-18T03:53:08.388Z,99122.00
2019-05-18T03:55:41.204Z,99119.00
2019-05-18T03:58:14.048Z,99119.00
2019-05-18T04:00:46.866Z,99127.00
2019-05-18T04:03:19.695Z,99122.00
2019-05-18T04:05:52.536Z,99126.00
2019-05-18T04:08:26.411Z,99127.00
2019-05-18T04:10:59.214Z,99129.00
2019-05-18T04:13:32.007Z,99124.00
2019-05-18T04:16:04.812Z,99121.00
2019-05-18T04:18:37.622Z,99127.00
2019-05-18T04:21:10.419Z,99117.00
2019-05-18T04:23:43.240Z,99119.00
2019-05-18T04:26:16.059Z,99121.00
2019-05-18T04:28:48.891Z,99130.00
2019-05-18T04:31:21.693Z,99129.00
2019-05-18T04:33:54.497Z,99127.00
2019-05-18T04:36:28.426Z,99133.00
2019-05-18T04:39:01.231Z,99135.00
2019-05-18T04:41:35.473Z,99138.00
2019-05-18T04:44:08.255Z,99130.00
2019-05-18T04:46:41.057Z,99135.00
2019-05-18T04:49:13.878Z,99131.00
2019-05-18T04:51:48.809Z,99138.00
2019-05-18T04:54:21.643Z,99143.00
2019-05-18T04:56:54.448Z,99147.00
2019-05-18T04:59:27.268Z,99149.00
2019-05-18T05:02:00.136Z,99168.00
2019-05-18T05:04:33.036Z,99163.00
2019-05-18T05:07:05.885Z,99169.00
2019-05-18T05:09:38.829Z,99171.00
2019-05-18T05:12:12.545Z,99172.00
2019-05-18T05:14:45.345Z,99172.00
2019-05-18T05:17:18.167Z,99177.00
2019-05-18T05:19:51.091Z,99173.00
2019-05-18T05:22:23.910Z,99172.00
2019-05-18T05:24:58.074Z,99179.00
2019-05-18T05:27:30.897Z,99178.00
2019-05-18T05:30:04.417Z,99172.00
2019-05-18T05:32:39.413Z,99169.00
2019-05-18T05:35:12.226Z,99184.00
2019-05-18T05:37:45.053Z,99176.00
2019-05-18T05:40:18.636Z,99188.00
2019-05-18T05:42:51.468Z,99175.00
2019-05-18T05:45:25.410Z,99176.00
2019-05-18T05:47:58.285Z,99181.00
2019-05-18T05:50:35.843Z,99181.00
2019-05-18T05:53:05.807Z,99184.00
2019-05-18T05:55:38.643Z,99191.00
2019-05-18T05:58:11.473Z,99191.00
2019-05-18T06:00:44.305Z,99193.00
2019-05-18T06:03:17.135Z,99202.00
2019-05-18T06:05:49.994Z,99192.00
2019-05-18T06:08:22.835Z,99175.00
2019-05-18T06:10:55.740Z,99173.00
2019-05-18T06:13:28.551Z,99164.00
2019-05-18T06:16:01.621Z,99175.00
2019-05-18T06:18:34.488Z,99176.00
2019-05-18T06:21:07.339Z,99169.00
2019-05-18T06:23:40.156Z,99169.00
2019-05-18T06:26:12.980Z,99161.00
2019-05-18T06:28:45.793Z,99165.00
2019-05-18T06:31:18.617Z,99164.00
2019-05-18T06:33:51.529Z,99156.00
2019-05-18T06:36:24.423Z,99166.00
2019-05-18T06:38:57.223Z,99165.00
2019-05-18T06:41:30.086Z,99172.00
2019-05-18T06:44:03.037Z,99184.00
2019-05-18T06:46:36.043Z,99174.00
2019-05-18T06:49:08.916Z,99181.00
2019-05-18T06:51:41.826Z,99163.00
2019-05-18T06:54:14.677Z,99186.00
2019-05-18T06:56:48.081Z,99188.00
2019-05-18T06:59:22.217Z,99190.00
2019-05-18T07:01:55.144Z,99197.00
2019-05-18T07:04:27.984Z,99190.00
2019-05-18T07:07:00.782Z,99186.00
2019-05-18T07:09:33.710Z,99191.00
2019-05-18T07:12:06.601Z,99195.00
2019-05-18T07:14:39.414Z,99197.00
2019-05-18T07:17:12.278Z,99199.00
2019-05-18T07:19:45.072Z,99197.00
2019-05-18T07:22:17.905Z,99197.00
2019-05-18T07:24:50.715Z,99206.00
2019-05-18T07:27:23.570Z,99194.00
2019-05-18T07:29:56.380Z,99197.00
2019-05-18T07:32:29.144Z,99196.00
2019-05-18T07:35:02.049Z,99203.00
2019-05-18T07:37:36.061Z,99203.00
2019-05-18T07:40:09.300Z,99193.00
2019-05-18T07:42:42.069Z,99187.00
2019-05-18T07:45:15.142Z,99197.00
2019-05-18T07:47:47.895Z,99203.00
2019-05-18T07:50:34.579Z,99202.00
2019-05-18T07:53:08.327Z,99199.00
2019-05-18T07:55:41.078Z,99195.00
2019-05-18T07:58:14.095Z,99199.00
2019-05-18T08:00:46.889Z,99199.00
2019-05-18T08:03:19.670Z,99205.00
2019-05-18T08:05:52.447Z,99198.00
2019-05-18T08:08:26.315Z,99185.00
2019-05-18T08:10:59.041Z,99199.00
2019-05-18T08:13:31.780Z,99204.00
2019-05-18T08:16:05.606Z,99203.00
2019-05-18T08:18:38.394Z,99195.00
2019-05-18T08:21:12.129Z,99203.00
2019-05-18T08:23:44.911Z,99210.00
2019-05-18T08:26:17.628Z,99216.00
2019-05-18T08:28:50.378Z,99214.00
2019-05-18T08:31:23.084Z,99202.00
2019-05-18T08:33:55.852Z,99201.00
2019-05-18T08:36:28.591Z,99205.00
2019-05-18T08:39:01.379Z,99206.00
2019-05-18T08:41:35.306Z,99190.00
2019-05-18T08:44:08.051Z,99210.00
2019-05-18T08:46:40.831Z,99199.00
2019-05-18T08:49:13.679Z,99202.00
2019-05-18T08:51:46.437Z,99208.00
2019-05-18T08:54:19.172Z,99198.00
2019-05-18T08:56:51.883Z,99194.00
2019-05-18T08:59:24.442Z,99192.00
2019-05-18T09:01:57.393Z,99205.00
2019-05-18T09:04:30.268Z,99208.00
2019-05-18T09:07:03.077Z,99210.00
2019-05-18T09:09:35.927Z,99209.00
2019-05-18T09:12:08.847Z,99186.00
2019-05-18T09:14:41.668Z,99190.00
2019-05-18T09:17:14.538Z,99200.00
2019-05-18T09:19:47.358Z,99211.00
2019-05-18T09:22:23.073Z,99205.00
2019-05-18T09:24:55.155Z,99205.00
2019-05-18T09:27:28.021Z,99201.00
2019-05-18T09:30:00.896Z,99206.00
2019-05-18T09:32:33.808Z,99202.00
2019-05-18T09:35:07.972Z,99206.00
2019-05-18T09:37:40.907Z,99209.00
2019-05-18T09:40:14.204Z,99194.00
2019-05-18T09:42:47.001Z,99187.00
2019-05-18T09:45:21.146Z,99189.00
2019-05-18T09:47:54.107Z,99192.00
2019-05-18T09:50:26.972Z,99182.00
2019-05-18T09:52:59.840Z,99178.00
2019-05-18T09:55:32.675Z,99181.00
2019-05-18T09:58:07.491Z,99190.00
2019-05-18T10:00:40.371Z,99184.00
2019-05-18T10:03:14.816Z,99181.00
2019-05-18T10:05:47.644Z,99191.00
2019-05-18T10:08:20.489Z,99187.00
2019-05-18T10:10:53.319Z,99190.00
2019-05-18T10:13:26.213Z,99176.00
2019-05-18T10:15:59.097Z,99169.00
2019-05-18T10:18:31.911Z,99165.00
2019-05-18T10:21:04.802Z,99171.00
2019-05-18T10:23:40.391Z,99155.00
2019-05-18T10:26:12.478Z,99157.00
2019-05-18T10:28:45.367Z,99159.00
2019-05-18T10:31:18.328Z,99152.00
2019-05-18T10:33:51.232Z,99156.00
2019-05-18T10:36:24.128Z,99158.00
2019-05-18T10:38:57.126Z,99152.00
2019-05-18T10:41:30.968Z,99152.00
2019-05-18T10:44:04.072Z,99160.00
2019-05-18T10:46:36.962Z,99156.00
2019-05-18T10:49:09.802Z,99149.00
2019-05-18T10:51:42.639Z,99153.00
2019-05-18T10:54:15.479Z,99151.00
2019-05-18T10:56:48.504Z,99141.00
2019-05-18T10:59:21.348Z,99148.00
2019-05-18T11:01:54.182Z,99147.00
2019-05-18T11:04:27.047Z,99143.00
2019-05-18T11:06:59.911Z,99147.00
2019-05-18T11:09:33.860Z,99151.00
2019-05-18T11:12:06.686Z,99149.00
2019-05-18T11:14:39.642Z,99149.00
2019-05-18T11:17:12.464Z,99157.00
2019-05-18T11:19:45.415Z,99134.00
2019-05-18T11:22:19.242Z,99142.00
2019-05-18T11:24:52.103Z,99142.00
2019-05-18T11:27:24.915Z,99130.00
2019-05-18T11:29:57.808Z,99127.00
2019-05-18T11:32:30.616Z,99130.00
2019-05-18T11:35:03.996Z,99134.00
2019-05-18T11:37:36.845Z,99120.00
2019-05-18T11:40:11.620Z,99117.00
2019-05-18T11:42:44.477Z,99112.00
2019-05-18T11:45:18.622Z,99131.00
2019-05-18T11:47:51.497Z,99112.00
2019-05-18T11:50:24.728Z,99121.00
2019-05-18T11:52:57.548Z,99130.00
2019-05-18T11:55:30.402Z,99124.00
2019-05-18T11:58:03.380Z,99131.00
2019-05-18T12:00:36.261Z,99120.00
2019-05-18T12:03:09.118Z,99112.00
2019-05-18T12:05:42.004Z,99112.00
2019-05-18T12:08:14.799Z,99115.00
2019-05-18T12:10:47.658Z,99113.00
2019-05-18T12:13:22.428Z,99106.00
2019-05-18T12:15:55.272Z,99109.00
2019-05-18T12:18:28.234Z,99102.00
2019-05-18T12:21:01.107Z,99099.00
2019-05-18T12:23:33.938Z,99107.00
2019-05-18T12:26:06.889Z,99090.00
2019-05-18T12:28:39.710Z,99105.00
2019-05-18T12:31:13.656Z,99098.00
2019-05-18T12:33:46.522Z,99098.00
2019-05-18T12:36:19.416Z,99100.00
2019-05-18T12:38:52.321Z,99107.00
2019-05-18T12:41:31.082Z,99096.00
2019-05-18T12:44:03.878Z,99101.00
2019-05-18T12:46:36.788Z,99094.00
2019-05-18T12:49:09.605Z,99090.00
2019-05-18T12:51:42.441Z,99089.00
2019-05-18T12:54:28.702Z,99086.00
2019-05-18T12:56:50.133Z,99087.00
2019-05-18T12:59:22.956Z,99094.00
2019-05-18T13:01:55.937Z,99092.00
2019-05-18T13:04:28.800Z,99090.00
2019-05-18T13:07:01.714Z,99077.00
2019-05-18T13:09:34.653Z,99069.00
2019-05-18T13:12:07.526Z,99072.00
2019-05-18T13:14:40.398Z,99085.00
2019-05-18T13:17:13.243Z,99080.00
2019-05-18T13:19:46.086Z,99086.00
2019-05-18T13:22:18.964Z,99084.00
2019-05-18T13:24:52.373Z,99078.00
2019-05-18T13:27:38.294Z,99078.00
2019-05-18T13:30:00.176Z,99084.00
2019-05-18T13:32:33.113Z,99079.00
2019-05-18T13:35:07.985Z,99083.00
2019-05-18T13:37:40.881Z,99082.00
2019-05-18T13:40:14.756Z,99078.00
2019-05-18T13:42:47.602Z,99063.00
2019-05-18T13:45:20.699Z,99063.00
2019-05-18T13:47:53.539Z,99063.00
2019-05-18T13:50:26.402Z,99069.00
2019-05-18T13:52:59.271Z,99073.00
2019-05-18T13:55:32.111Z,99061.00
2019-05-18T13:58:05.133Z,99062.00
2019-05-18T14:00:38.032Z,99066.00
2019-05-18T14:03:10.928Z,99063.00
2019-05-18T14:05:43.748Z,99064.00
2019-05-18T14:08:16.587Z,99071.00
2019-05-18T14:10:49.442Z,99063.00
2019-05-18T14:13:22.397Z,99063.00
2019-05-18T14:15:55.275Z,99060.00
2019-05-18T14:18:28.102Z,99054.00
2019-05-18T14:21:01.034Z,99048.00
2019-05-18T14:23:33.869Z,99048.00
2019-05-18T14:26:06.803Z,99052.00
2019-05-18T14:28:39.675Z,99056.00
2019-05-18T14:31:12.487Z,99059.00
2019-05-18T14:33:45.344Z,99054.00
2019-05-18T14:36:18.191Z,99054.00
2019-05-18T14:38:51.047Z,99059.00
2019-05-18T14:41:24.152Z,99070.00
2019-05-18T14:43:57.153Z,99061.00
2019-05-18T14:46:30.031Z,99049.00
2019-05-18T14:49:02.870Z,99040.00
2019-05-18T14:51:35.749Z,99048.00
2019-05-18T14:54:08.593Z,99030.00
2019-05-18T14:56:41.469Z,99033.00
2019-05-18T14:59:14.337Z,99029.00
2019-05-18T15:01:47.258Z,99022.00
2019-05-18T15:04:20.125Z,99022.00
2019-05-18T15:06:53.009Z,99011.00
2019-05-18T15:09:25.953Z,99013.00
2019-05-18T15:11:58.730Z,99018.00
2019-05-18T15:14:31.604Z,99011.00
2019-05-18T15:17:04.642Z,99010.00
2019-05-18T15:19:37.495Z,99009.00
2019-05-18T15:22:10.301Z,99003.00
2019-05-18T15:24:43.136Z,99018.00
2019-05-18T15:27:15.986Z,99016.00
2019-05-18T15:29:48.855Z,99017.00
2019-05-18T15:32:21.820Z,99024.00
2019-05-18T15:34:54.692Z,99029.00
2019-05-18T15:37:27.703Z,99022.00
2019-05-18T15:40:00.543Z,99025.00
2019-05-18T15:42:33.377Z,99016.00
2019-05-18T15:45:06.874Z,99021.00
2019-05-18T15:47:39.794Z,99020.00
2019-05-18T15:50:13.552Z,99022.00
2019-05-18T15:52:46.460Z,99020.00
2019-05-18T15:55:19.497Z,99026.00
2019-05-18T15:57:52.363Z,99025.00
2019-05-18T16:00:25.815Z,99020.00
2019-05-18T16:02:58.680Z,99026.00
2019-05-18T16:05:31.556Z,99020.00
2019-05-18T16:08:04.608Z,99023.00
2019-05-18T16:10:39.408Z,99016.00
2019-05-18T16:13:12.244Z,99013.00
2019-05-18T16:15:45.110Z,99016.00
2019-05-18T16:18:17.945Z,99013.00
2019-05-18T16:20:50.766Z,99014.00
2019-05-18T16:23:23.606Z,99016.00
2019-05-18T16:25:56.469Z,99011.00
2019-05-18T16:28:29.297Z,99022.00
2019-05-18T16:31:02.316Z,99019.00
2019-05-18T16:33:35.154Z,99021.00
2019-05-18T16:36:08.393Z,99015.00
2019-05-18T16:38:41.425Z,99020.00
2019-05-18T16:41:14.263Z,99019.00
2019-05-18T16:43:47.202Z,99018.00
2019-05-18T16:46:20.091Z,99017.00
2019-05-18T16:48:52.945Z,99017.00
2019-05-18T16:51:25.805Z,99020.00
2019-05-18T16:53:58.652Z,99019.00
2019-05-18T16:56:35.287Z,99026.00
2019-05-18T16:59:06.350Z,99027.00
2019-05-18T17:01:39.254Z,99026.00
2019-05-18T17:04:12.138Z,99020.00
2019-05-18T17:06:44.985Z,99013.00
2019-05-18T17:09:17.970Z,99019.00
2019-05-18T17:11:50.966Z,99028.00
2019-05-18T17:14:23.835Z,99012.00
2019-05-18T17:16:57.778Z,99023.00
2019-05-18T17:19:30.583Z,99015.00
2019-05-18T17:22:03.438Z,99017.00
2019-05-18T17:24:36.270Z,99023.00
2019-05-18T17:27:09.176Z,99023.00
2019-05-18T17:29:41.993Z,99029.00
2019-05-18T17:32:15.779Z,99035.00
2019-05-18T17:34:48.624Z,99041.00
2019-05-18T17:37:21.539Z,99048.00
2019-05-18T17:39:54.373Z,99044.00
2019-05-18T17:42:27.181Z,99044.00
2019-05-18T17:45:00.129Z,99042.00
2019-05-18T17:47:32.957Z,99043.00
2019-05-18T17:50:06.134Z,99047.00
2019-05-18T17:52:39.102Z,99056.00
2019-05-18T17:55:15.853Z,99044.00
2019-05-18T17:57:47.555Z,99036.00
2019-05-18T18:00:20.495Z,99033.00
2019-05-18T18:02:53.362Z,99039.00
2019-05-18T18:05:26.263Z,99031.00
2019-05-18T18:07:59.486Z,99033.00
2019-05-18T18:10:32.383Z,99034.00
2019-05-18T18:13:05.441Z,99023.00
2019-05-18T18:15:38.469Z,99032.00
2019-05-18T18:18:11.342Z,99034.00
2019-05-18T18:20:44.290Z,99034.00
2019-05-18T18:23:17.319Z,99038.00
2019-05-18T18:25:50.305Z,99048.00
2019-05-18T18:28:23.173Z,99051.00
2019-05-18T18:30:56.053Z,99051.00
2019-05-18T18:33:28.948Z,99050.00
2019-05-18T18:36:01.841Z,99068.00
2019-05-18T18:38:34.806Z,99065.00
2019-05-18T18:41:07.652Z,99074.00
2019-05-18T18:43:40.574Z,99082.00
2019-05-18T18:46:13.409Z,99131.00
2019-05-18T18:48:46.331Z,99145.00
2019-05-18T18:51:19.193Z,99145.00
2019-05-18T18:53:53.282Z,99141.00
2019-05-18T18:56:26.114Z,99146.00
2019-05-18T18:58:59.014Z,99161.00
2019-05-18T19:01:31.882Z,99162.00
2019-05-18T19:04:04.795Z,99162.00
2019-05-18T19:06:37.765Z,99169.00
2019-05-18T19:09:10.639Z,99183.00
2019-05-18T19:11:43.503Z,99174.00
2019-05-18T19:14:16.530Z,99189.00
2019-05-18T19:16:49.347Z,99196.00
2019-05-18T19:19:22.282Z,99204.00
2019-05-18T19:21:56.276Z,99197.00
2019-05-18T19:24:29.142Z,99198.00
2019-05-18T19:27:03.202Z,99201.00
2019-05-18T19:29:38.629Z,99202.00
2019-05-18T19:32:11.506Z,99211.00
2019-05-18T19:34:44.522Z,99217.00
2019-05-18T19:37:17.423Z,99215.00
2019-05-18T19:39:50.366Z,99218.00
2019-05-18T19:42:23.215Z,99224.00
2019-05-18T19:44:56.097Z,99216.00
2019-05-18T19:47:29.131Z,99225.00
2019-05-18T19:50:02.274Z,99228.00
2019-05-18T19:52:35.127Z,99231.00
2019-05-18T19:55:08.205Z,99225.00
2019-05-18T19:57:41.063Z,99240.00
2019-05-18T20:00:14.778Z,99241.00
2019-05-18T20:02:47.655Z,99253.00
2019-05-18T20:05:20.547Z,99262.00
2019-05-18T20:07:53.422Z,99269.00
2019-05-18T20:10:26.353Z,99274.00
2019-05-18T20:12:59.238Z,99277.00
2019-05-18T20:15:32.200Z,99278.00
2019-05-18T20:18:05.689Z,99283.00
2019-05-18T20:20:38.595Z,99261.00
2019-05-18T20:23:11.754Z,99271.00
2019-05-18T20:25:44.697Z,99260.00
2019-05-18T20:28:23.928Z,99260.00
2019-05-18T20:30:52.559Z,99265.00
2019-05-18T20:33:25.633Z,99273.00
2019-05-18T20:35:58.530Z,99273.00
2019-05-18T20:38:31.467Z,99272.00
2019-05-18T20:41:04.452Z,99287.00
2019-05-18T20:43:37.341Z,99280.00
2019-05-18T20:46:10.211Z,99286.00
2019-05-18T20:48:43.113Z,99276.00
2019-05-18T20:51:15.988Z,99260.00
2019-05-18T20:53:48.939Z,99243.00
2019-05-18T20:56:21.896Z,99232.00
2019-05-18T20:58:54.787Z,99217.00
2019-05-18T21:01:28.757Z,99207.00
2019-05-18T21:04:01.722Z,99207.00
2019-05-18T21:06:34.699Z,99203.00
2019-05-18T21:09:07.566Z,99199.00
2019-05-18T21:11:40.431Z,99192.00
2019-05-18T21:14:13.301Z,99178.00
2019-05-18T21:16:46.159Z,99173.00
2019-05-18T21:19:19.126Z,99174.00
2019-05-18T21:21:52.218Z,99171.00
2019-05-18T21:24:26.080Z,99164.00
2019-05-18T21:26:58.938Z,99167.00
2019-05-18T21:29:31.825Z,99170.00
2019-05-18T21:32:04.658Z,99169.00
2019-05-18T21:34:37.483Z,99174.00
2019-05-18T21:37:10.363Z,99166.00
2019-05-18T21:39:43.335Z,99182.00
2019-05-18T21:42:16.191Z,99181.00
2019-05-18T21:44:49.264Z,99192.00
2019-05-18T21:47:22.143Z,99186.00
2019-05-18T21:49:55.138Z,99191.00
2019-05-18T21:52:28.028Z,99187.00
2019-05-18T21:55:00.933Z,99196.00
2019-05-18T21:57:33.766Z,99199.00
2019-05-18T22:00:09.025Z,99200.00
2019-05-18T22:02:43.751Z,99206.00
2019-05-18T22:05:16.804Z,99202.00
2019-05-18T22:07:49.680Z,99208.00
2019-05-18T22:10:25.644Z,99199.00
2019-05-18T22:12:57.402Z,99207.00
2019-05-18T22:15:30.286Z,99215.00
2019-05-18T22:18:03.148Z,99234.00
2019-05-18T22:20:43.101Z,99240.00
2019-05-18T22:23:11.381Z,99233.00
2019-05-18T22:25:45.560Z,99228.00
2019-05-18T22:28:18.489Z,99228.00
2019-05-18T22:30:51.387Z,99232.00
2019-05-18T22:33:24.547Z,99237.00
2019-05-18T22:35:57.424Z,99244.00
2019-05-18T22:38:30.264Z,99247.00
2019-05-18T22:41:03.100Z,99245.00
2019-05-18T22:43:37.048Z,99257.00
2019-05-18T22:46:09.994Z,99257.00
2019-05-18T22:48:42.839Z,99249.00
2019-05-18T22:51:15.683Z,99257.00
2019-05-18T22:53:48.496Z,99253.00
2019-05-18T22:56:21.506Z,99246.00
2019-05-18T22:58:54.329Z,99256.00
2019-05-18T23:01:28.353Z,99252.00
2019-05-18T23:04:02.302Z,99244.00
2019-05-18T23:06:35.248Z,99245.00
2019-05-18T23:09:09.199Z,99240.00
2019-05-18T23:11:42.129Z,99230.00
2019-05-18T23:14:14.939Z,99222.00
2019-05-18T23:16:47.913Z,99219.00
2019-05-18T23:19:20.757Z,99218.00
2019-05-18T23:21:53.668Z,99214.00
2019-05-18T23:24:26.521Z,99208.00
2019-05-18T23:26:59.476Z,99210.00
2019-05-18T23:29:33.448Z,99205.00
2019-05-18T23:32:06.313Z,99200.00
2019-05-18T23:34:39.087Z,99189.00
2019-05-18T23:37:11.956Z,99199.00
2019-05-18T23:39:44.965Z,99188.00
2019-05-18T23:42:17.801Z,99179.00
2019-05-18T23:44:50.622Z,99172.00
2019-05-18T23:47:23.576Z,99171.00
2019-05-18T23:49:56.393Z,99157.00
2019-05-18T23:52:29.224Z,99143.00
2019-05-18T23:55:02.397Z,99142.00
2019-05-18T23:57:35.575Z,99140.00
